Time;durP1;ratioP1;P1;durP2;ratioP2;P2;SDS_P1;SDS_P2;PMS_P1;PMS_P2;Temp;Humidity;BMP_temperature;BMP_pressure;BME280_temperature;BME280_humidity;BME280_pressure;Samples;Min_cycle;Max_cycle;Signal;HPM_P1;HPM_P2
2021/10/16 00:02:19;;;;;;;4.65;2.05;;;;;;;20.32;46.26;102165.56;4992758;28;20034;-61
2021/10/16 00:04:44;;;;;;;6.70;2.30;;;;;;;20.31;46.24;102167.34;4992525;28;20049;-62
2021/10/16 00:07:09;;;;;;;6.25;2.17;;;;;;;20.27;45.97;102169.34;4992489;28;20044;-62
2021/10/16 00:09:35;;;;;;;5.78;2.53;;;;;;;20.27;46.55;102166.72;4992926;28;20030;-62
2021/10/16 00:12:00;;;;;;;4.28;1.90;;;;;;;20.26;46.09;102177.41;4992347;28;20454;-61
2021/10/16 00:14:25;;;;;;;5.05;2.10;;;;;;;20.24;46.27;102176.69;4992938;28;20089;-61
2021/10/16 00:16:51;;;;;;;4.80;2.17;;;;;;;20.23;46.09;102180.25;4992881;28;20041;-61
2021/10/16 00:19:16;;;;;;;4.90;2.00;;;;;;;20.22;46.15;102175.91;4992265;28;20359;-61
2021/10/16 00:21:41;;;;;;;5.43;2.03;;;;;;;20.21;45.85;102183.03;4992977;28;20280;-61
2021/10/16 00:24:06;;;;;;;4.63;1.92;;;;;;;20.19;45.82;102186.75;4992440;28;20034;-61
2021/10/16 00:26:33;;;;;;;5.35;2.22;;;;;;;20.18;46.00;102180.59;4992449;28;20113;-62
2021/10/16 00:28:58;;;;;;;4.63;1.98;;;;;;;20.16;45.69;102173.72;4992649;28;20049;-62
2021/10/16 00:31:23;;;;;;;4.93;2.00;;;;;;;20.14;45.85;102167.66;4992845;28;20022;-62
2021/10/16 00:33:49;;;;;;;4.50;2.17;;;;;;;20.11;45.83;102172.22;4993027;28;20022;-61
2021/10/16 00:36:14;;;;;;;4.32;1.67;;;;;;;20.11;45.79;102174.03;4992233;28;20041;-61
2021/10/16 00:38:40;;;;;;;3.97;1.98;;;;;;;20.09;45.74;102171.50;4993504;28;20462;-61
2021/10/16 00:41:05;;;;;;;5.72;2.40;;;;;;;20.06;45.67;102166.41;4996265;28;20494;-61
2021/10/16 00:43:30;;;;;;;5.20;2.17;;;;;;;20.05;45.81;102169.16;4996758;28;20496;-61
2021/10/16 00:45:55;;;;;;;5.20;1.85;;;;;;;20.04;45.61;102167.44;4995862;28;20632;-62
2021/10/16 00:48:21;;;;;;;6.23;2.40;;;;;;;20.03;45.50;102163.13;4996516;28;20037;-62
2021/10/16 00:50:46;;;;;;;4.65;2.00;;;;;;;20.02;45.51;102162.25;4996558;28;20787;-61
2021/10/16 00:53:12;;;;;;;5.63;2.20;;;;;;;20.00;45.86;102160.69;4995753;28;20070;-62
2021/10/16 00:55:40;;;;;;;4.95;1.98;;;;;;;20.00;45.44;102160.69;4996227;28;20039;-62
2021/10/16 00:58:05;;;;;;;4.43;1.95;;;;;;;19.99;45.59;102165.13;4995852;28;20026;-62
2021/10/16 01:00:33;;;;;;;4.50;1.88;;;;;;;19.98;45.56;102159.94;4996081;28;20089;-62
2021/10/16 01:03:01;;;;;;;6.82;2.35;;;;;;;19.96;45.25;102156.56;4995762;28;20023;-61
2021/10/16 01:05:27;;;;;;;4.35;2.00;;;;;;;19.94;45.26;102168.06;4996401;28;20046;-63
2021/10/16 01:07:52;;;;;;;5.32;2.40;;;;;;;19.93;45.53;102165.53;4995842;28;20442;-62
2021/10/16 01:10:17;;;;;;;5.20;2.20;;;;;;;19.91;45.36;102167.44;4995784;28;20117;-62
2021/10/16 01:12:47;;;;;;;5.60;1.85;;;;;;;19.89;45.29;102159.63;4996761;28;20022;-62
2021/10/16 01:15:16;;;;;;;5.55;2.17;;;;;;;19.88;45.21;102157.91;4995418;28;20125;-61
2021/10/16 01:17:44;;;;;;;4.88;2.00;;;;;;;19.88;45.23;102159.72;4995966;28;20062;-62
2021/10/16 01:20:16;;;;;;;5.75;2.03;;;;;;;19.86;45.02;102159.81;4995548;28;20432;-62
2021/10/16 01:22:42;;;;;;;3.70;1.70;;;;;;;19.85;45.32;102155.50;4995363;28;20038;-61
2021/10/16 01:25:13;;;;;;;7.28;2.13;;;;;;;19.85;45.20;102155.50;4995438;28;20037;-62
2021/10/16 01:27:39;;;;;;;6.25;2.10;;;;;;;19.84;45.24;102145.84;4995702;28;20399;-62
2021/10/16 01:30:07;;;;;;;6.82;2.25;;;;;;;19.82;45.15;102149.56;4995585;28;20027;-61
2021/10/16 01:32:34;;;;;;;5.72;2.28;;;;;;;19.81;44.89;102143.41;4995335;28;20022;-61
2021/10/16 01:35:00;;;;;;;4.07;1.65;;;;;;;19.79;45.02;102141.81;4994849;28;20204;-60
2021/10/16 01:37:25;;;;;;;4.80;1.83;;;;;;;19.78;45.05;102140.97;4995443;28;20506;-61
2021/10/16 01:39:50;;;;;;;4.83;2.10;;;;;;;19.76;45.03;102140.25;4996141;28;20073;-60
2021/10/16 01:42:16;;;;;;;4.40;1.67;;;;;;;19.78;44.91;102150.72;4994784;28;20280;-61
2021/10/16 01:44:42;;;;;;;4.80;1.80;;;;;;;19.75;44.99;102138.50;4995278;28;20043;-61
2021/10/16 01:47:07;;;;;;;5.88;2.10;;;;;;;19.73;44.93;102135.97;4995038;28;20399;-61
2021/10/16 01:49:33;;;;;;;6.00;2.38;;;;;;;19.72;44.84;102138.72;4994514;28;20030;-61
2021/10/16 01:51:58;;;;;;;4.10;1.85;;;;;;;19.71;44.68;102134.38;4994144;28;20101;-61
2021/10/16 01:54:26;;;;;;;4.20;1.83;;;;;;;19.71;44.87;102132.59;4995100;28;20057;-62
2021/10/16 01:56:52;;;;;;;4.55;1.80;;;;;;;19.70;44.95;102132.69;4994695;28;20033;-62
2021/10/16 01:59:22;;;;;;;4.50;1.80;;;;;;;19.71;44.92;102135.25;4995001;28;20031;-61
2021/10/16 02:01:48;;;;;;;4.95;2.10;;;;;;;19.69;44.75;102131.84;4995236;28;20026;-61
2021/10/16 02:04:14;;;;;;;6.10;2.17;;;;;;;19.68;44.88;102137.25;4994102;28;20467;-62
2021/10/16 02:06:41;;;;;;;5.85;1.98;;;;;;;19.66;44.58;102136.47;4994958;28;20029;-60
2021/10/16 02:09:07;;;;;;;5.22;1.90;;;;;;;19.64;44.63;102141.88;4994696;28;20038;-61
2021/10/16 02:11:33;;;;;;;4.47;1.70;;;;;;;19.65;44.68;102134.81;4994329;28;20088;-61
2021/10/16 02:13:59;;;;;;;3.78;1.80;;;;;;;19.63;44.55;102140.19;4994286;28;20035;-61
2021/10/16 02:16:24;;;;;;;4.47;1.80;;;;;;;19.62;44.69;102135.00;4994823;28;20027;-61
2021/10/16 02:18:50;;;;;;;5.00;2.30;;;;;;;19.60;44.53;102134.25;4994124;28;20092;-61
2021/10/16 02:21:15;;;;;;;3.35;1.65;;;;;;;19.59;44.58;102136.06;4994361;28;20141;-61
2021/10/16 02:23:41;;;;;;;4.25;1.85;;;;;;;19.59;44.71;102133.41;4994695;28;20026;-61
2021/10/16 02:26:06;;;;;;;5.68;1.83;;;;;;;19.57;44.51;102130.03;4994550;28;20451;-61
2021/10/16 02:28:31;;;;;;;4.78;1.88;;;;;;;19.56;44.72;102131.81;4994351;28;20046;-62
2021/10/16 02:30:56;;;;;;;5.47;1.85;;;;;;;19.57;44.54;102140.59;4993794;28;20455;-61
2021/10/16 02:33:22;;;;;;;4.90;2.05;;;;;;;19.55;44.57;102145.13;4994367;28;20046;-61
2021/10/16 02:35:47;;;;;;;5.75;2.05;;;;;;;19.53;44.43;102147.88;4994085;28;20022;-61
2021/10/16 02:38:12;;;;;;;4.87;1.90;;;;;;;19.53;44.57;102141.75;4993723;28;20045;-61
2021/10/16 02:40:38;;;;;;;3.80;2.00;;;;;;;19.51;44.38;102144.50;4994361;28;20276;-61
2021/10/16 02:43:06;;;;;;;4.72;1.98;;;;;;;19.51;44.27;102148.94;4993875;28;20283;-61
2021/10/16 02:45:31;;;;;;;4.63;2.00;;;;;;;19.51;44.58;102149.78;4993768;28;20043;-61
2021/10/16 02:47:57;;;;;;;5.28;2.10;;;;;;;19.49;44.45;102149.06;4993486;28;20434;-60
2021/10/16 02:50:22;;;;;;;5.55;2.10;;;;;;;19.49;44.42;102142.94;4994094;28;20026;-61
2021/10/16 02:52:50;;;;;;;5.77;2.00;;;;;;;19.48;44.43;102150.00;4993455;28;20038;-61
2021/10/16 02:55:18;;;;;;;4.90;2.03;;;;;;;19.48;44.31;102147.34;4993222;28;20299;-60
2021/10/16 02:57:44;;;;;;;5.00;1.85;;;;;;;19.49;44.46;102148.22;4994063;28;20066;-61
2021/10/16 03:00:10;;;;;;;4.65;1.77;;;;;;;19.49;44.40;102145.56;4992245;28;20119;-61
2021/10/16 03:02:35;;;;;;;4.22;1.60;;;;;;;19.48;44.17;102142.06;4993609;28;20097;-61
2021/10/16 03:05:01;;;;;;;4.85;2.05;;;;;;;19.47;44.19;102137.75;4993397;28;20030;-61
2021/10/16 03:07:30;;;;;;;5.43;1.85;;;;;;;19.47;44.43;102137.75;4993345;28;20137;-61
2021/10/16 03:09:55;;;;;;;5.03;1.85;;;;;;;19.46;44.39;102140.47;4993404;28;20395;-62
2021/10/16 03:12:20;;;;;;;4.72;1.80;;;;;;;19.45;44.53;102136.97;4993697;28;20042;-62
2021/10/16 03:14:49;;;;;;;4.78;2.10;;;;;;;19.45;44.24;102136.13;4993127;28;20112;-61
2021/10/16 03:17:18;;;;;;;4.70;1.90;;;;;;;19.45;44.26;102144.91;4993014;28;20504;-61
2021/10/16 03:19:44;;;;;;;4.15;1.67;;;;;;;19.44;44.41;102147.66;4993694;28;20031;-61
2021/10/16 03:22:10;;;;;;;4.07;1.80;;;;;;;19.43;44.53;102154.75;4992468;28;20462;-62
2021/10/16 03:24:36;;;;;;;4.13;1.80;;;;;;;19.44;44.25;102152.94;4993433;28;20042;-61
2021/10/16 03:27:05;;;;;;;4.22;1.75;;;;;;;19.42;44.23;102153.03;4992530;28;20049;-61
2021/10/16 03:29:32;;;;;;;4.32;1.65;;;;;;;19.42;44.26;102155.69;4993434;28;20023;-61
2021/10/16 03:31:57;;;;;;;4.93;1.73;;;;;;;19.41;44.10;102148.72;4992858;28;20026;-61
2021/10/16 03:34:22;;;;;;;4.43;1.73;;;;;;;19.40;44.34;102144.38;4992821;28;20493;-61
2021/10/16 03:36:48;;;;;;;6.55;1.90;;;;;;;19.39;44.39;102142.66;4993263;28;20379;-60
2021/10/16 03:39:13;;;;;;;4.15;1.70;;;;;;;19.39;44.17;102146.19;4992970;28;20475;-61
2021/10/16 03:41:38;;;;;;;3.70;1.70;;;;;;;19.38;44.11;102149.75;4992758;28;20014;-61
2021/10/16 03:44:04;;;;;;;4.40;1.98;;;;;;;19.38;44.38;102147.13;4992819;28;20041;-60
2021/10/16 03:46:29;;;;;;;3.42;1.58;;;;;;;19.37;44.04;102145.41;4993195;28;20037;-61
2021/10/16 03:48:54;;;;;;;4.72;1.67;;;;;;;19.37;44.17;102137.47;4992659;28;20038;-61
2021/10/16 03:51:21;;;;;;;4.38;1.90;;;;;;;19.37;44.21;102136.63;4992429;28;20026;-60
2021/10/16 03:53:55;;;;;;;3.95;1.70;;;;;;;19.37;44.19;102140.13;4992911;28;20050;-61
2021/10/16 03:56:20;;;;;;;;;;;;;;;19.37;44.21;102137.47;4992621;28;20517;-61
2021/10/16 03:58:45;;;;;;;4.93;1.63;;;;;;;19.38;44.21;102133.06;4992714;28;19917;-60
2021/10/16 04:01:14;;;;;;;4.47;1.90;;;;;;;19.37;44.10;102139.28;4992928;28;20034;-61
2021/10/16 04:03:39;;;;;;;6.45;2.10;;;;;;;19.36;44.37;102137.59;4992548;28;20057;-61
2021/10/16 04:06:05;;;;;;;4.45;1.75;;;;;;;19.37;44.40;102147.22;4992422;28;20038;-62
2021/10/16 04:08:30;;;;;;;3.78;1.75;;;;;;;19.35;44.46;102142.03;4992872;28;20030;-62
2021/10/16 04:10:55;;;;;;;5.13;1.73;;;;;;;19.35;44.62;102141.19;4992299;28;20038;-61
2021/10/16 04:13:21;;;;;;;3.75;1.70;;;;;;;19.34;43.93;102136.84;4994236;28;20034;-61
2021/10/16 04:15:46;;;;;;;4.95;1.92;;;;;;;19.34;44.19;102140.34;4999462;28;20026;-61
2021/10/16 04:18:11;;;;;;;4.57;1.73;;;;;;;19.34;44.52;102139.47;4998029;28;20042;-61
2021/10/16 04:20:37;;;;;;;4.35;1.83;;;;;;;19.36;44.36;102140.25;4999146;28;20102;-61
2021/10/16 04:23:02;;;;;;;5.30;1.80;;;;;;;19.34;44.06;102139.47;4999008;28;20030;-61
2021/10/16 04:25:27;;;;;;;4.60;2.33;;;;;;;19.35;44.20;102141.19;4998745;28;20378;-61
2021/10/16 04:27:53;;;;;;;3.80;1.48;;;;;;;19.34;44.28;102136.84;4998983;28;20030;-61
2021/10/16 04:30:18;;;;;;;4.28;1.90;;;;;;;19.33;44.25;102138.66;4998189;28;20530;-61
2021/10/16 04:32:43;;;;;;;4.57;1.98;;;;;;;19.34;44.38;102136.84;4999377;28;20042;-61
2021/10/16 04:35:09;;;;;;;5.70;2.25;;;;;;;19.37;44.33;102132.19;4998898;28;20052;-61
2021/10/16 04:37:36;;;;;;;5.18;2.00;;;;;;;19.42;44.33;102131.88;4998534;28;20316;-61
2021/10/16 04:40:12;;;;;;;4.20;1.60;;;;;;;19.48;44.15;102131.47;4998808;28;20026;-62
2021/10/16 04:42:38;;;;;;;4.10;1.70;;;;;;;19.55;43.95;102131.91;4999126;28;20116;-60
2021/10/16 04:45:06;;;;;;;3.78;1.70;;;;;;;19.58;44.14;102142.28;4998509;28;20493;-61
2021/10/16 04:47:31;;;;;;;3.03;1.40;;;;;;;19.62;44.04;102132.38;4998659;28;20219;-61
2021/10/16 04:49:59;;;;;;;4.13;1.77;;;;;;;19.65;43.69;102132.16;4998785;28;20470;-60
2021/10/16 04:52:25;;;;;;;3.95;1.50;;;;;;;19.67;43.94;102124.97;4998513;28;20049;-61
2021/10/16 04:54:50;;;;;;;4.53;1.80;;;;;;;19.69;43.84;102131.84;4998433;28;20349;-61
2021/10/16 04:57:18;;;;;;;4.67;1.67;;;;;;;19.70;43.80;102130.88;4998577;28;20026;-61
2021/10/16 04:59:43;;;;;;;4.18;1.88;;;;;;;19.71;43.42;102124.66;4998523;28;20306;-61
2021/10/16 05:02:10;;;;;;;5.40;1.83;;;;;;;19.72;43.58;102131.63;4998413;28;20042;-61
2021/10/16 05:04:38;;;;;;;5.30;1.90;;;;;;;19.72;43.47;102134.25;4999117;28;20029;-62
2021/10/16 05:07:04;;;;;;;4.03;1.73;;;;;;;19.70;43.45;102128.25;4998058;28;20125;-60
2021/10/16 05:09:37;;;;;;;3.85;1.83;;;;;;;19.70;43.54;102132.69;4998544;28;20425;-61
2021/10/16 05:12:02;;;;;;;4.53;1.65;;;;;;;19.71;43.46;102134.38;4998409;28;20030;-62
2021/10/16 05:14:27;;;;;;;4.53;1.90;;;;;;;19.70;43.76;102133.53;4998269;28;20117;-61
2021/10/16 05:16:53;;;;;;;5.07;1.60;;;;;;;19.69;43.74;102134.50;4998589;28;20030;-61
2021/10/16 05:19:18;;;;;;;3.88;1.55;;;;;;;19.71;43.37;102137.88;4998302;28;20346;-61
2021/10/16 05:21:43;;;;;;;3.42;1.45;;;;;;;19.70;43.46;102136.19;4998854;28;20125;-62
2021/10/16 05:24:09;;;;;;;4.93;1.70;;;;;;;19.71;43.43;102142.31;4998049;28;20030;-61
2021/10/16 05:26:34;;;;;;;4.85;1.70;;;;;;;19.71;43.83;102134.38;4993938;28;20023;-61
2021/10/16 05:28:59;;;;;;;4.55;1.70;;;;;;;19.78;43.80;102134.84;4994937;28;20030;-61
2021/10/16 05:31:25;;;;;;;5.28;1.63;;;;;;;19.86;44.20;102138.66;4995719;28;20033;-61
2021/10/16 05:33:50;;;;;;;3.70;1.60;;;;;;;19.98;44.49;102136.13;4995240;28;20476;-61
2021/10/16 05:36:18;;;;;;;4.38;1.63;;;;;;;20.07;44.76;102138.97;4995153;28;20478;-61
2021/10/16 05:38:44;;;;;;;4.60;1.70;;;;;;;20.16;44.78;102132.22;4995760;28;20026;-62
2021/10/16 05:41:09;;;;;;;3.80;1.58;;;;;;;20.26;44.92;102141.19;4994604;28;20027;-62
2021/10/16 05:43:34;;;;;;;4.53;1.50;;;;;;;20.35;45.28;102141.53;4995098;28;20111;-61
2021/10/16 05:46:01;;;;;;;4.05;1.60;;;;;;;20.44;44.88;102147.00;4995339;28;20338;-62
2021/10/16 05:48:29;;;;;;;3.63;1.45;;;;;;;20.50;44.74;102151.00;4994916;28;20395;-61
2021/10/16 05:50:54;;;;;;;3.47;1.20;;;;;;;20.54;44.67;102157.78;4995274;28;20117;-63
2021/10/16 05:53:20;;;;;;;3.87;1.43;;;;;;;20.58;44.77;102155.75;4994984;28;20133;-62
2021/10/16 05:55:45;;;;;;;5.53;1.40;;;;;;;20.63;44.44;102143.91;4994900;28;20106;-61
2021/10/16 05:58:10;;;;;;;4.43;1.40;;;;;;;20.71;44.30;102148.69;4994967;28;20064;-61
2021/10/16 06:00:38;;;;;;;4.73;1.30;;;;;;;20.76;44.33;102154.50;4995303;28;20330;-62
2021/10/16 06:03:03;;;;;;;3.78;1.48;;;;;;;20.82;44.01;102158.47;4994487;28;20072;-61
2021/10/16 06:05:29;;;;;;;3.50;1.27;;;;;;;20.86;44.14;102149.38;4995098;28;20022;-61
2021/10/16 06:07:54;;;;;;;4.05;1.50;;;;;;;20.90;43.98;102152.63;4995074;28;20320;-61
2021/10/16 06:10:19;;;;;;;2.90;1.20;;;;;;;20.91;43.99;102149.88;4993419;28;20567;-62
2021/10/16 06:12:44;;;;;;;3.58;1.35;;;;;;;20.91;43.88;102144.56;4994867;28;20533;-61
2021/10/16 06:15:10;;;;;;;3.33;1.23;;;;;;;20.92;44.01;102150.72;4994854;28;20038;-61
2021/10/16 06:17:35;;;;;;;4.38;1.60;;;;;;;20.92;44.22;102156.88;4994481;28;20026;-62
2021/10/16 06:20:00;;;;;;;3.85;1.40;;;;;;;20.93;43.95;102147.09;4993790;28;20092;-61
2021/10/16 06:22:26;;;;;;;3.55;1.38;;;;;;;20.94;44.10;102152.28;4994808;28;20219;-62
2021/10/16 06:24:54;;;;;;;3.45;1.40;;;;;;;20.94;43.95;102157.59;4994347;28;20037;-62
2021/10/16 06:27:20;;;;;;;4.18;1.33;;;;;;;20.95;43.81;102154.00;4994453;28;20018;-62
2021/10/16 06:29:46;;;;;;;3.17;1.40;;;;;;;20.97;43.88;102157.38;4994841;28;20371;-63
2021/10/16 06:32:11;;;;;;;3.53;1.33;;;;;;;20.97;44.09;102157.38;4993388;28;20029;-62
2021/10/16 06:34:38;;;;;;;3.53;1.40;;;;;;;20.96;44.01;102160.97;4994521;28;20119;-62
2021/10/16 06:37:03;;;;;;;3.60;1.33;;;;;;;20.99;43.90;102170.50;4993376;28;20494;-62
2021/10/16 06:39:28;;;;;;;3.20;1.40;;;;;;;21.00;44.04;102165.09;4994198;28;20109;-64
2021/10/16 06:41:54;;;;;;;3.38;1.27;;;;;;;21.05;43.72;102163.94;4994511;28;20018;-63
2021/10/16 06:44:22;;;;;;;3.88;1.40;;;;;;;21.09;43.01;102165.38;4993994;28;20029;-62
2021/10/16 06:46:47;;;;;;;3.25;1.52;;;;;;;21.08;43.02;102171.63;4994202;28;20019;-62
2021/10/16 06:49:12;;;;;;;3.53;1.70;;;;;;;21.07;43.12;102167.31;4993866;28;20034;-63
2021/10/16 06:51:38;;;;;;;3.17;1.17;;;;;;;21.03;43.33;102166.69;4993688;28;20030;-63
2021/10/16 06:54:03;;;;;;;4.35;1.63;;;;;;;21.02;43.64;102170.28;4993397;28;20420;-63
2021/10/16 06:56:32;;;;;;;3.47;1.42;;;;;;;21.05;43.00;102171.88;4994177;28;20359;-68
2021/10/16 06:58:57;;;;;;;3.35;1.50;;;;;;;21.08;43.12;102166.34;4993254;28;20041;-66
2021/10/16 07:01:22;;;;;;;3.75;1.58;;;;;;;21.16;42.74;102169.28;4993907;28;20101;-65
2021/10/16 07:03:50;;;;;;;4.30;1.50;;;;;;;21.19;42.84;102166.41;4994017;28;20433;-62
2021/10/16 07:06:17;;;;;;;5.45;1.75;;;;;;;21.17;42.51;102170.97;4993017;28;20698;-62
2021/10/16 07:08:42;;;;;;;4.97;1.85;;;;;;;21.16;43.10;102174.59;4993658;28;20042;-66
2021/10/16 07:11:11;;;;;;;3.37;1.50;;;;;;;21.17;43.27;102170.97;4993507;28;20037;-62
2021/10/16 07:13:42;;;;;;;4.60;1.70;;;;;;;21.14;43.57;102174.72;4993280;28;20280;-62
2021/10/16 07:16:08;;;;;;;3.72;1.60;;;;;;;21.13;43.78;102174.81;4993005;28;20022;-64
2021/10/16 07:18:33;;;;;;;4.32;1.77;;;;;;;21.13;43.50;102174.81;4993615;28;20042;-65
2021/10/16 07:20:59;;;;;;;3.72;1.52;;;;;;;21.17;43.27;102174.47;4992488;28;20378;-64
2021/10/16 07:23:27;;;;;;;4.00;1.80;;;;;;;21.26;43.19;102183.56;4993339;28;20038;-64
2021/10/16 07:25:56;;;;;;;3.70;1.40;;;;;;;21.29;43.21;102180.69;4993744;28;20022;-65
2021/10/16 07:28:28;;;;;;;3.70;1.55;;;;;;;21.31;43.20;102192.00;4992731;28;20125;-64
2021/10/16 07:30:53;;;;;;;4.78;1.70;;;;;;;21.31;43.11;102189.34;4993457;28;20073;-66
2021/10/16 07:33:19;;;;;;;5.15;1.77;;;;;;;21.30;43.18;102181.50;4992400;28;20105;-66
2021/10/16 07:35:44;;;;;;;6.22;1.95;;;;;;;21.28;43.08;102186.94;4992807;28;20034;-65
2021/10/16 07:38:11;;;;;;;5.88;1.65;;;;;;;21.28;43.21;102186.09;4993028;28;20034;-65
2021/10/16 07:40:37;;;;;;;4.60;1.88;;;;;;;21.24;43.43;102185.47;4992769;28;20402;-64
2021/10/16 07:43:02;;;;;;;4.30;1.70;;;;;;;21.21;43.48;102185.69;4992810;28;20026;-64
2021/10/16 07:45:31;;;;;;;4.72;1.80;;;;;;;21.16;43.58;102186.03;4993066;28;20026;-64
2021/10/16 07:47:56;;;;;;;5.35;2.08;;;;;;;21.12;43.71;102186.38;4991505;28;20054;-64
2021/10/16 07:50:22;;;;;;;6.95;2.08;;;;;;;21.09;43.88;102191.88;4992781;28;20053;-64
2021/10/16 07:52:47;;;;;;;4.47;1.77;;;;;;;21.14;44.04;102187.09;4993187;28;20038;-64
2021/10/16 07:55:13;;;;;;;3.17;1.48;;;;;;;21.20;43.94;102194.59;4992085;28;20042;-64
2021/10/16 07:57:38;;;;;;;4.03;1.55;;;;;;;21.24;43.91;102197.88;4992696;28;20100;-62
2021/10/16 08:00:08;;;;;;;4.13;2.05;;;;;;;21.24;43.67;102193.44;4992754;28;20026;-62
2021/10/16 08:02:34;;;;;;;3.95;1.60;;;;;;;21.25;43.66;102192.44;4992034;28;20088;-64
2021/10/16 08:05:01;;;;;;;4.50;1.83;;;;;;;21.26;43.64;102193.31;4992182;28;20455;-65
2021/10/16 08:07:27;;;;;;;5.40;1.80;;;;;;;21.26;43.89;102190.66;4992959;28;20038;-65
2021/10/16 08:09:52;;;;;;;4.30;1.60;;;;;;;21.26;43.70;102196.81;4992160;28;20034;-64
2021/10/16 08:12:17;;;;;;;3.83;1.63;;;;;;;21.24;43.71;102188.13;4992348;28;20027;-63
2021/10/16 08:14:43;;;;;;;4.50;1.58;;;;;;;21.24;43.80;102195.22;4992732;28;20022;-64
2021/10/16 08:17:08;;;;;;;3.92;1.70;;;;;;;21.18;43.55;102194.72;4991816;28;20030;-64
2021/10/16 08:19:33;;;;;;;5.93;1.80;;;;;;;21.12;44.23;102196.97;4992506;28;20030;-63
2021/10/16 08:21:59;;;;;;;6.88;1.88;;;;;;;21.08;44.07;102191.06;4992634;28;20482;-65
2021/10/16 08:24:24;;;;;;;5.85;1.90;;;;;;;21.10;44.00;102197.09;4992017;28;20376;-64
2021/10/16 08:26:49;;;;;;;4.53;1.85;;;;;;;21.13;44.16;102202.16;4992565;28;20050;-63
2021/10/16 08:29:14;;;;;;;5.50;1.90;;;;;;;21.14;44.06;102198.56;4992210;28;20093;-65
2021/10/16 08:31:41;;;;;;;5.55;1.67;;;;;;;21.17;43.97;102198.34;4991663;28;20023;-65
2021/10/16 08:34:06;;;;;;;5.30;1.80;;;;;;;21.20;43.88;102203.44;4992247;28;20030;-64
2021/10/16 08:36:32;;;;;;;7.50;1.87;;;;;;;21.16;44.25;102199.28;4992525;28;20085;-66
2021/10/16 08:38:57;;;;;;;4.85;1.88;;;;;;;21.13;44.27;102203.97;4994561;28;20303;-65
2021/10/16 08:41:22;;;;;;;5.20;1.90;;;;;;;21.13;44.13;102203.97;4994417;28;20038;-66
2021/10/16 08:43:50;;;;;;;6.05;2.00;;;;;;;21.20;43.98;102210.50;4992313;28;20038;-66
2021/10/16 08:46:16;;;;;;;4.57;1.52;;;;;;;21.23;43.78;102202.34;4992355;28;20046;-66
2021/10/16 08:48:42;;;;;;;4.88;1.90;;;;;;;21.27;43.85;102209.13;4992586;28;20522;-65
2021/10/16 08:51:09;;;;;;;5.72;2.38;;;;;;;21.33;43.80;102206.03;4990869;28;20073;-66
2021/10/16 08:53:35;;;;;;;5.60;2.00;;;;;;;21.36;43.57;102204.94;4992363;28;20097;-64
2021/10/16 08:56:04;;;;;;;6.43;2.20;;;;;;;21.39;43.50;102207.34;4992108;28;20023;-65
2021/10/16 08:58:31;;;;;;;5.85;2.15;;;;;;;21.43;43.55;102213.25;4992088;28;20084;-63
2021/10/16 09:00:56;;;;;;;4.68;1.80;;;;;;;21.47;43.33;102220.06;4994824;28;20394;-64
2021/10/16 09:03:40;;;;;;;5.63;2.65;;;;;;;21.50;43.30;102220.69;4996150;28;20030;-63
2021/10/16 09:06:18;;;;;;;6.85;2.22;;;;;;;21.49;43.34;102226.09;4995687;28;20137;-66
2021/10/16 09:08:56;;;;;;;7.25;2.45;;;;;;;21.44;43.28;102218.47;4995976;28;20038;-66
2021/10/16 09:11:31;;;;;;;6.10;2.63;;;;;;;21.45;43.36;102224.63;4996639;28;20058;-64
2021/10/16 09:14:35;;;;;;;6.13;2.67;;;;;;;21.46;43.50;102213.91;4995139;28;20042;-63
2021/10/16 09:17:02;;;;;;;7.53;2.67;;;;;;;21.51;43.34;102219.75;4991639;28;20034;-67
2021/10/16 09:19:32;;;;;;;8.93;3.22;;;;;;;21.51;43.01;102217.09;4995297;28;20125;-64
2021/10/16 09:22:04;;;;;;;7.00;2.50;;;;;;;21.50;43.23;102222.50;4995278;28;20057;-65
2021/10/16 09:24:34;;;;;;;6.90;2.97;;;;;;;21.46;43.17;102227.16;4995815;28;20078;-64
2021/10/16 09:27:03;;;;;;;9.52;3.03;;;;;;;21.46;43.41;102227.16;4995114;28;20027;-63
2021/10/16 09:29:32;;;;;;;6.38;2.78;;;;;;;21.50;43.37;102223.34;4995868;28;20026;-63
2021/10/16 09:32:08;;;;;;;5.70;2.63;;;;;;;21.52;43.44;102225.88;4995506;28;20026;-65
2021/10/16 09:34:36;;;;;;;7.65;2.65;;;;;;;21.53;43.41;102224.94;4994946;28;20077;-62
2021/10/16 09:37:36;;;;;;;8.02;3.17;;;;;;;21.54;43.33;102224.00;4995514;28;20038;-62
2021/10/16 09:40:03;;;;;;;8.65;3.05;;;;;;;21.60;43.00;102217.38;4994471;28;20034;-64
2021/10/16 09:42:31;;;;;;;8.05;3.08;;;;;;;21.60;42.88;102226.16;4995728;28;20023;-63
2021/10/16 09:45:01;;;;;;;6.30;2.47;;;;;;;21.60;42.92;102226.16;4996614;28;20030;-62
2021/10/16 09:47:27;;;;;;;8.20;3.05;;;;;;;21.61;42.86;102225.22;4995856;28;20022;-63
2021/10/16 09:50:03;;;;;;;6.60;2.78;;;;;;;21.61;42.97;102219.91;4996264;28;20092;-65
2021/10/16 09:52:40;;;;;;;7.65;2.80;;;;;;;21.62;42.78;102226.03;4995438;28;20113;-64
2021/10/16 09:55:08;;;;;;;7.50;2.72;;;;;;;21.63;42.88;102227.75;4994495;28;20049;-65
2021/10/16 09:57:33;;;;;;;5.45;2.20;;;;;;;21.61;42.71;102219.91;4995306;28;20382;-69
2021/10/16 10:00:04;;;;;;;7.20;2.63;;;;;;;21.60;42.86;102220.00;4995331;28;20414;-63
2021/10/16 10:02:32;;;;;;;5.47;2.60;;;;;;;21.62;43.06;102223.38;4994845;28;20060;-63
2021/10/16 10:05:01;;;;;;;6.55;2.42;;;;;;;21.65;42.72;102220.50;4994960;28;20486;-66
2021/10/16 10:07:27;;;;;;;7.78;2.45;;;;;;;21.63;42.67;102217.97;4995428;28;20043;-66
2021/10/16 10:09:52;;;;;;;7.78;2.60;;;;;;;21.64;42.81;102222.31;4994302;28;20386;-61
2021/10/16 10:12:19;;;;;;;5.85;2.40;;;;;;;21.65;42.85;102221.38;4994954;28;20045;-65
2021/10/16 10:14:47;;;;;;;6.78;2.80;;;;;;;21.63;42.97;102222.44;4996357;28;20105;-64
2021/10/16 10:17:16;;;;;;;6.05;2.28;;;;;;;21.62;42.98;102223.38;4994773;28;20035;-66
2021/10/16 10:19:49;;;;;;;5.03;2.08;;;;;;;21.61;42.99;102222.56;4995660;28;20027;-65
2021/10/16 10:22:18;;;;;;;7.18;2.38;;;;;;;21.60;42.99;102222.66;4994499;28;20034;-63
2021/10/16 10:24:51;;;;;;;5.93;2.30;;;;;;;21.59;43.14;102215.66;4994914;28;20046;-64
2021/10/16 10:27:23;;;;;;;7.63;2.17;;;;;;;21.62;43.01;102218.09;4994533;28;20038;-62
2021/10/16 10:29:54;;;;;;;6.13;2.35;;;;;;;21.62;42.99;102218.94;4994558;28;20433;-62
2021/10/16 10:32:27;;;;;;;5.60;2.25;;;;;;;21.61;42.98;102217.25;4994332;28;20038;-63
2021/10/16 10:35:00;;;;;;;5.30;2.08;;;;;;;21.60;42.99;102220.00;4994762;28;20030;-62
2021/10/16 10:37:37;;;;;;;5.10;2.03;;;;;;;21.58;43.14;102219.28;4994581;28;20069;-62
2021/10/16 10:40:16;;;;;;;5.00;2.20;;;;;;;21.57;43.12;102223.75;4993968;28;20375;-64
2021/10/16 10:42:43;;;;;;;5.50;2.00;;;;;;;21.58;42.93;102225.44;4994642;28;20085;-64
2021/10/16 10:45:22;;;;;;;4.15;1.70;;;;;;;21.58;42.93;102219.28;4993659;28;20029;-68
2021/10/16 10:48:08;;;;;;;5.43;2.00;;;;;;;21.56;43.03;102220.25;4994794;28;20038;-66
2021/10/16 10:50:49;;;;;;;7.28;1.92;;;;;;;21.54;43.09;102205.41;4993962;28;20030;-65
2021/10/16 10:53:23;;;;;;;4.70;1.90;;;;;;;21.53;43.24;102204.56;4993683;28;20113;-65
2021/10/16 10:56:19;;;;;;;5.93;2.13;;;;;;;21.51;42.72;102206.47;4994653;28;20038;-62
2021/10/16 10:58:50;;;;;;;5.30;1.80;;;;;;;21.52;43.26;102204.66;4994118;28;20027;-62
2021/10/16 11:01:51;;;;;;;5.68;2.10;;;;;;;21.53;43.35;102204.56;4993964;28;20030;-63
2021/10/16 11:04:34;;;;;;;5.15;1.85;;;;;;;21.55;43.41;102207.97;4993429;28;20052;-63
2021/10/16 11:07:02;;;;;;;5.95;1.95;;;;;;;21.58;43.11;102204.22;4994463;28;20034;-62
2021/10/16 11:09:27;;;;;;;5.05;1.52;;;;;;;21.60;43.15;102201.44;4996517;28;20387;-62
2021/10/16 11:11:52;;;;;;;6.27;1.87;;;;;;;21.61;43.12;102200.50;4995325;28;20030;-62
2021/10/16 11:14:18;;;;;;;5.78;2.22;;;;;;;21.62;43.14;102204.81;4994457;28;20306;-61
2021/10/16 11:17:04;;;;;;;5.70;1.88;;;;;;;21.60;43.21;102198.78;4994273;28;20346;-63
2021/10/16 11:19:29;;;;;;;4.88;1.75;;;;;;;21.56;43.33;102191.06;4993541;28;20032;-64
2021/10/16 11:21:57;;;;;;;4.22;1.63;;;;;;;21.59;43.47;102192.66;4993852;28;20105;-63
2021/10/16 11:24:25;;;;;;;4.32;1.80;;;;;;;21.61;43.11;102198.69;4993085;28;20026;-60
2021/10/16 11:26:58;;;;;;;5.05;1.95;;;;;;;21.65;43.11;102193.97;4992859;28;20513;-61